createdAt,value
2018-12-19T00:01:50.799Z,5.93
2018-12-19T00:04:19.337Z,5.90
2018-12-19T00:06:47.866Z,5.97
2018-12-19T00:09:16.313Z,5.53
2018-12-19T00:11:44.827Z,5.93
2018-12-19T00:14:13.314Z,6.00
2018-12-19T00:16:48.205Z,5.73
2018-12-19T00:19:16.749Z,6.27
2018-12-19T00:21:45.205Z,6.07
2018-12-19T00:24:13.707Z,6.13
2018-12-19T00:26:42.453Z,6.00
2018-12-19T00:29:10.878Z,5.40
2018-12-19T00:31:39.335Z,6.07
2018-12-19T00:34:07.762Z,5.70
2018-12-19T00:36:36.315Z,5.60
2018-12-19T00:39:09.652Z,5.80
2018-12-19T00:41:38.163Z,6.20
2018-12-19T00:44:06.609Z,5.73
2018-12-19T00:46:35.059Z,5.80
2018-12-19T00:49:03.591Z,5.07
2018-12-19T00:51:32.041Z,5.60
2018-12-19T00:54:00.499Z,5.30
2018-12-19T00:56:29.491Z,5.30
2018-12-19T00:58:57.904Z,5.63
2018-12-19T01:01:26.334Z,5.27
2018-12-19T01:03:54.806Z,5.20
2018-12-19T01:06:23.226Z,5.40
2018-12-19T01:08:51.721Z,4.97
2018-12-19T01:11:20.226Z,5.33
2018-12-19T01:13:48.684Z,5.33
2018-12-19T01:16:17.776Z,5.10
2018-12-19T01:18:46.242Z,5.47
2018-12-19T01:21:15.875Z,4.57
2018-12-19T01:23:44.298Z,5.83
2018-12-19T01:26:13.946Z,5.57
2018-12-19T01:28:42.384Z,5.40
2018-12-19T01:31:11.424Z,5.83
2018-12-19T01:33:39.824Z,5.53
2018-12-19T01:36:08.459Z,5.10
2018-12-19T01:38:37.347Z,5.30
2018-12-19T01:41:06.034Z,5.80
2018-12-19T01:43:34.532Z,5.33
2018-12-19T01:46:03.036Z,5.77
2018-12-19T01:48:31.541Z,5.90
2018-12-19T01:51:00.032Z,5.27
2018-12-19T01:53:28.456Z,5.70
2018-12-19T01:55:57.238Z,5.57
2018-12-19T01:58:25.670Z,5.47
2018-12-19T02:00:54.125Z,5.07
2018-12-19T02:03:22.579Z,5.57
2018-12-19T02:05:51.052Z,4.90
2018-12-19T02:08:19.544Z,5.40
2018-12-19T02:10:47.977Z,5.43
2018-12-19T02:13:16.433Z,5.60
2018-12-19T02:15:44.965Z,5.37
2018-12-19T02:18:13.508Z,5.63
2018-12-19T02:20:42.247Z,5.60
2018-12-19T02:23:10.718Z,5.40
2018-12-19T02:25:39.223Z,5.47
2018-12-19T02:28:07.730Z,5.57
2018-12-19T02:30:36.961Z,5.93
2018-12-19T02:33:05.550Z,6.03
2018-12-19T02:35:34.005Z,5.90
2018-12-19T02:38:02.678Z,5.90
2018-12-19T02:40:31.121Z,5.80
2018-12-19T02:42:59.819Z,5.57
2018-12-19T02:45:28.306Z,5.10
2018-12-19T02:47:56.916Z,5.67
2018-12-19T02:50:25.376Z,5.63
2018-12-19T02:52:53.846Z,5.40
2018-12-19T02:55:23.132Z,5.17
2018-12-19T02:57:51.613Z,6.10
2018-12-19T03:00:20.130Z,5.30
2018-12-19T03:02:48.634Z,5.67
2018-12-19T03:05:17.216Z,5.10
2018-12-19T03:07:45.652Z,5.07
2018-12-19T03:10:14.102Z,5.23
2018-12-19T03:12:43.348Z,5.40
2018-12-19T03:15:11.842Z,4.90
2018-12-19T03:17:40.238Z,5.30
2018-12-19T03:20:08.801Z,5.40
2018-12-19T03:22:37.221Z,5.20
2018-12-19T03:25:05.646Z,5.17
2018-12-19T03:27:34.081Z,5.57
2018-12-19T03:30:03.531Z,4.90
2018-12-19T03:32:31.985Z,5.80
2018-12-19T03:35:00.413Z,5.60
2018-12-19T03:37:28.841Z,4.97
2018-12-19T03:39:57.258Z,5.80
2018-12-19T03:42:25.765Z,5.40
2018-12-19T03:44:54.221Z,4.77
2018-12-19T03:47:22.646Z,5.27
2018-12-19T03:49:51.209Z,4.90
2018-12-19T03:52:19.645Z,4.67
2018-12-19T03:54:48.074Z,5.13
2018-12-19T03:57:16.503Z,5.00
2018-12-19T03:59:45.044Z,4.80
2018-12-19T04:02:13.516Z,4.30
2018-12-19T04:04:42.015Z,4.30
2018-12-19T04:07:10.430Z,4.43
2018-12-19T04:09:38.881Z,4.80
2018-12-19T04:12:07.350Z,5.17
2018-12-19T04:14:35.802Z,5.00
2018-12-19T04:17:04.246Z,5.47
2018-12-19T04:19:33.482Z,5.23
2018-12-19T04:22:01.931Z,5.20
2018-12-19T04:24:30.359Z,5.53
2018-12-19T04:26:58.991Z,4.47
2018-12-19T04:29:27.441Z,4.83
2018-12-19T04:31:55.848Z,4.80
2018-12-19T04:34:24.265Z,4.57
2018-12-19T04:36:52.687Z,4.60
2018-12-19T04:39:21.093Z,4.83
2018-12-19T04:41:49.506Z,5.33
2018-12-19T04:44:17.920Z,5.07
2018-12-19T04:46:46.428Z,5.23
2018-12-19T04:49:14.865Z,4.47
2018-12-19T04:51:43.306Z,5.37
2018-12-19T04:54:11.748Z,4.53
2018-12-19T04:56:40.192Z,5.00
2018-12-19T04:59:08.650Z,4.77
2018-12-19T05:01:37.088Z,5.47
2018-12-19T05:04:05.505Z,4.63
2018-12-19T05:06:34.663Z,4.57
2018-12-19T05:09:03.647Z,4.50
2018-12-19T05:11:32.147Z,4.80
2018-12-19T05:14:00.597Z,4.60
2018-12-19T05:16:29.016Z,4.40
2018-12-19T05:18:57.458Z,3.80
2018-12-19T05:21:25.911Z,3.83
2018-12-19T05:23:54.368Z,3.43
2018-12-19T05:26:22.998Z,3.30
2018-12-19T05:28:51.472Z,3.03
2018-12-19T05:31:19.977Z,2.80
2018-12-19T05:33:48.426Z,3.07
2018-12-19T05:36:16.898Z,2.60
2018-12-19T05:38:45.329Z,2.93
2018-12-19T05:41:13.786Z,3.80
2018-12-19T05:43:42.289Z,3.90
2018-12-19T05:46:10.791Z,4.00
2018-12-19T05:48:39.216Z,4.00
2018-12-19T05:51:07.633Z,4.20
2018-12-19T05:53:36.064Z,4.43
2018-12-19T05:56:04.489Z,4.27
2018-12-19T05:58:32.898Z,4.40
2018-12-19T06:01:01.464Z,3.90
2018-12-19T06:03:29.921Z,4.07
2018-12-19T06:05:58.495Z,4.03
2018-12-19T06:08:26.914Z,3.80
2018-12-19T06:10:55.370Z,4.27
2018-12-19T06:13:23.808Z,4.30
2018-12-19T06:15:52.222Z,4.17
2018-12-19T06:18:20.655Z,4.40
2018-12-19T06:20:49.098Z,4.40
2018-12-19T06:23:17.528Z,3.93
2018-12-19T06:25:46.021Z,4.10
2018-12-19T06:28:14.508Z,4.23
2018-12-19T06:30:43.134Z,4.03
2018-12-19T06:33:11.633Z,4.77
2018-12-19T06:35:40.184Z,4.40
2018-12-19T06:38:08.613Z,4.13
2018-12-19T06:40:37.046Z,4.80
2018-12-19T06:43:05.503Z,4.30
2018-12-19T06:45:33.983Z,4.47
2018-12-19T06:48:02.413Z,4.67
2018-12-19T06:50:30.808Z,4.33
2018-12-19T06:52:59.241Z,4.77
2018-12-19T06:55:27.674Z,5.03
2018-12-19T06:57:57.461Z,4.60
2018-12-19T07:00:25.898Z,4.17
2018-12-19T07:02:54.465Z,4.70
2018-12-19T07:05:22.910Z,4.10
2018-12-19T07:07:51.377Z,4.57
2018-12-19T07:10:19.804Z,4.63
2018-12-19T07:12:48.297Z,4.33
2018-12-19T07:15:16.730Z,4.20
2018-12-19T07:17:45.410Z,4.77
2018-12-19T07:20:13.871Z,4.47
2018-12-19T07:22:42.347Z,5.10
2018-12-19T07:25:10.869Z,4.70
2018-12-19T07:27:39.282Z,4.50
2018-12-19T07:30:08.735Z,4.90
2018-12-19T07:32:37.219Z,5.07
2018-12-19T07:35:05.941Z,4.67
2018-12-19T07:37:34.428Z,5.33
2018-12-19T07:40:02.948Z,4.63
2018-12-19T07:42:31.462Z,4.57
2018-12-19T07:44:59.977Z,4.57
2018-12-19T07:47:28.451Z,3.90
2018-12-19T07:49:56.897Z,4.40
2018-12-19T07:52:25.325Z,4.33
2018-12-19T07:54:55.188Z,4.40
2018-12-19T07:57:23.590Z,4.37
2018-12-19T07:59:52.061Z,4.10
2018-12-19T08:02:20.529Z,4.73
2018-12-19T08:04:49.823Z,4.17
2018-12-19T08:07:18.331Z,4.37
2018-12-19T08:09:46.965Z,4.30
2018-12-19T08:12:15.513Z,4.20
2018-12-19T08:14:44.000Z,4.00
2018-12-19T08:17:12.433Z,4.30
2018-12-19T08:19:40.865Z,3.93
2018-12-19T08:22:09.286Z,4.70
2018-12-19T08:24:37.717Z,3.80
2018-12-19T08:27:06.252Z,4.10
2018-12-19T08:29:34.747Z,4.20
2018-12-19T08:32:03.205Z,3.80
2018-12-19T08:34:31.690Z,4.03
2018-12-19T08:37:00.150Z,3.90
2018-12-19T08:39:29.073Z,3.70
2018-12-19T08:41:57.605Z,3.43
2018-12-19T08:44:26.098Z,3.67
2018-12-19T08:46:54.547Z,3.60
2018-12-19T08:49:22.982Z,3.40
2018-12-19T08:51:52.018Z,3.40
2018-12-19T08:54:20.461Z,3.40
2018-12-19T08:56:48.977Z,3.40
2018-12-19T08:59:17.493Z,3.70
2018-12-19T09:01:45.980Z,3.13
2018-12-19T09:04:14.561Z,3.60
2018-12-19T09:06:43.083Z,3.63
2018-12-19T09:09:12.839Z,3.70
2018-12-19T09:11:41.325Z,3.90
2018-12-19T09:14:09.798Z,4.03
2018-12-19T09:16:38.281Z,4.23
2018-12-19T09:19:06.785Z,4.03
2018-12-19T09:21:35.280Z,3.73
2018-12-19T09:24:03.738Z,4.90
2018-12-19T09:26:32.167Z,4.97
2018-12-19T09:29:00.605Z,4.63
2018-12-19T09:31:29.007Z,4.40
2018-12-19T09:33:57.917Z,5.30
2018-12-19T09:36:26.517Z,7.50
2018-12-19T09:38:55.834Z,4.43
2018-12-19T09:41:24.274Z,3.50
2018-12-19T09:43:52.788Z,3.47
2018-12-19T09:46:21.292Z,3.07
2018-12-19T09:48:49.788Z,3.20
2018-12-19T09:51:18.184Z,2.77
2018-12-19T09:53:46.922Z,3.27
2018-12-19T09:56:15.446Z,3.63
2018-12-19T09:58:44.026Z,3.57
2018-12-19T10:01:12.473Z,3.73
2018-12-19T10:03:40.913Z,2.93
2018-12-19T10:06:09.434Z,3.10
2018-12-19T10:08:37.835Z,2.50
2018-12-19T10:11:06.470Z,2.67
2018-12-19T10:13:34.942Z,2.20
2018-12-19T10:16:04.667Z,2.20
2018-12-19T10:18:33.146Z,2.43
2018-12-19T10:21:01.641Z,2.37
2018-12-19T10:23:30.433Z,2.67
2018-12-19T10:26:04.497Z,2.43
2018-12-19T10:28:34.470Z,2.13
2018-12-19T10:31:03.014Z,2.10
2018-12-19T10:33:31.477Z,1.90
2018-12-19T10:36:00.018Z,1.80
2018-12-19T10:38:29.430Z,1.50
2018-12-19T10:40:57.888Z,1.90
2018-12-19T10:43:27.512Z,1.50
2018-12-19T10:45:56.661Z,1.60
2018-12-19T10:48:25.076Z,1.40
2018-12-19T10:50:53.581Z,1.60
2018-12-19T10:53:22.081Z,1.80
2018-12-19T10:55:50.656Z,1.70
2018-12-19T10:58:19.238Z,1.50
2018-12-19T11:00:52.967Z,1.73
2018-12-19T11:03:21.424Z,1.70
2018-12-19T11:05:54.285Z,1.77
2018-12-19T11:08:20.631Z,1.53
2018-12-19T11:10:49.065Z,1.60
2018-12-19T11:13:18.096Z,1.40
2018-12-19T11:15:46.493Z,1.53
2018-12-19T11:18:14.981Z,1.37
2018-12-19T11:20:43.418Z,1.10
2018-12-19T11:23:11.893Z,1.57
2018-12-19T11:25:40.324Z,1.27
2018-12-19T11:28:08.835Z,1.70
2018-12-19T11:30:37.386Z,1.60
2018-12-19T11:33:05.909Z,1.80
2018-12-19T11:35:34.346Z,2.17
2018-12-19T11:38:03.010Z,1.70
2018-12-19T11:40:31.514Z,1.70
2018-12-19T11:43:00.850Z,2.00
2018-12-19T11:45:29.393Z,1.70
2018-12-19T11:47:57.955Z,1.90
2018-12-19T11:50:26.512Z,1.90
2018-12-19T11:52:55.039Z,2.20
2018-12-19T11:55:23.788Z,1.87
2018-12-19T11:57:52.250Z,1.73
2018-12-19T12:00:20.825Z,2.07
2018-12-19T12:02:49.252Z,2.20
2018-12-19T12:05:17.740Z,2.10
2018-12-19T12:07:47.170Z,1.80
2018-12-19T12:10:15.649Z,1.70
2018-12-19T12:12:44.121Z,1.77
2018-12-19T12:15:12.545Z,1.70
2018-12-19T12:17:41.053Z,1.70
2018-12-19T12:20:09.542Z,1.80
2018-12-19T12:22:39.219Z,1.50
2018-12-19T12:25:08.007Z,1.40
2018-12-19T12:27:36.482Z,1.50
2018-12-19T12:30:06.065Z,1.60
2018-12-19T12:32:35.764Z,1.23
2018-12-19T12:35:05.366Z,1.57
2018-12-19T12:37:33.885Z,1.63
2018-12-19T12:40:02.329Z,1.50
2018-12-19T12:42:31.514Z,1.77
2018-12-19T12:45:00.711Z,1.67
2018-12-19T12:47:29.371Z,1.73
2018-12-19T12:49:57.789Z,1.60
2018-12-19T12:52:26.293Z,1.70
2018-12-19T12:54:54.815Z,1.80
2018-12-19T12:57:23.420Z,1.67
2018-12-19T12:59:51.872Z,1.70
2018-12-19T13:02:20.405Z,1.43
2018-12-19T13:04:48.914Z,1.77
2018-12-19T13:07:17.376Z,1.60
2018-12-19T13:09:45.836Z,1.70
2018-12-19T13:12:14.438Z,1.80
2018-12-19T13:14:42.922Z,1.73
2018-12-19T13:17:12.334Z,1.50
2018-12-19T13:19:41.145Z,1.70
2018-12-19T13:22:09.795Z,1.50
2018-12-19T13:24:38.215Z,1.37
2018-12-19T13:27:06.745Z,1.60
2018-12-19T13:29:35.137Z,1.50
2018-12-19T13:32:03.580Z,1.50
2018-12-19T13:34:32.024Z,1.63
2018-12-19T13:37:00.485Z,1.70
2018-12-19T13:39:28.913Z,1.57
2018-12-19T13:41:57.341Z,1.50
2018-12-19T13:44:25.863Z,1.80
2018-12-19T13:46:54.348Z,1.80
2018-12-19T13:49:22.847Z,1.60
2018-12-19T13:51:51.293Z,1.50
2018-12-19T13:54:19.781Z,1.33
2018-12-19T13:56:48.227Z,1.43
2018-12-19T13:59:16.721Z,1.47
2018-12-19T14:01:45.137Z,1.60
2018-12-19T14:04:13.643Z,1.40
2018-12-19T14:06:42.079Z,1.90
2018-12-19T14:09:10.720Z,2.10
2018-12-19T14:11:39.489Z,1.37
2018-12-19T14:14:07.995Z,1.90
2018-12-19T14:16:36.412Z,1.67
2018-12-19T14:19:04.993Z,2.00
2018-12-19T14:21:33.469Z,1.60
2018-12-19T14:24:02.017Z,1.97
2018-12-19T14:26:30.497Z,2.33
2018-12-19T14:28:59.027Z,2.13
2018-12-19T14:31:27.523Z,1.50
2018-12-19T14:33:56.030Z,2.00
2018-12-19T14:36:24.536Z,1.60
2018-12-19T14:38:53.190Z,2.03
2018-12-19T14:41:21.640Z,2.00
2018-12-19T14:43:50.109Z,1.93
2018-12-19T14:46:19.578Z,2.37
2018-12-19T14:48:48.080Z,1.60
2018-12-19T14:51:16.773Z,2.03
2018-12-19T14:53:45.205Z,1.90
2018-12-19T14:56:13.688Z,1.67
2018-12-19T14:58:42.136Z,2.17
2018-12-19T15:01:10.623Z,2.10
2018-12-19T15:03:39.269Z,2.10
2018-12-19T15:06:07.803Z,2.33
2018-12-19T15:08:37.012Z,2.80
2018-12-19T15:11:05.501Z,2.40
2018-12-19T15:13:33.977Z,2.50
2018-12-19T15:16:03.428Z,2.27
2018-12-19T15:18:31.951Z,2.60
2018-12-19T15:21:01.050Z,2.43
2018-12-19T15:23:29.564Z,2.57
2018-12-19T15:25:58.149Z,2.37
2018-12-19T15:28:27.058Z,2.63
2018-12-19T15:30:55.528Z,2.37
2018-12-19T15:33:24.041Z,2.20
2018-12-19T15:35:52.599Z,2.53
2018-12-19T15:38:21.065Z,2.40
2018-12-19T15:40:49.531Z,2.77
2018-12-19T15:43:18.019Z,1.97
2018-12-19T15:45:46.652Z,2.70
2018-12-19T15:48:15.146Z,2.50
2018-12-19T15:50:43.634Z,2.63
2018-12-19T15:53:12.157Z,2.63
2018-12-19T15:55:40.648Z,2.63
2018-12-19T15:58:09.362Z,2.47
2018-12-19T16:00:37.853Z,2.70
2018-12-19T16:03:06.325Z,2.23
2018-12-19T16:05:34.886Z,2.93
2018-12-19T16:08:03.372Z,2.67
2018-12-19T16:10:33.402Z,2.63
2018-12-19T16:13:01.967Z,2.80
2018-12-19T16:15:30.472Z,3.20
2018-12-19T16:17:58.904Z,2.30
2018-12-19T16:20:27.433Z,2.60
2018-12-19T16:22:55.925Z,3.10
2018-12-19T16:25:24.388Z,2.50
2018-12-19T16:27:52.845Z,2.77
2018-12-19T16:30:21.349Z,2.67
2018-12-19T16:32:49.793Z,3.20
2018-12-19T16:35:18.320Z,2.50
2018-12-19T16:37:46.812Z,3.13
2018-12-19T16:40:15.331Z,3.03
2018-12-19T16:42:46.251Z,3.20
2018-12-19T16:45:14.469Z,3.33
2018-12-19T16:47:42.960Z,3.23
2018-12-19T16:50:11.417Z,3.20
2018-12-19T16:52:39.941Z,3.47
2018-12-19T16:55:08.409Z,3.23
2018-12-19T16:57:36.952Z,3.07
2018-12-19T17:00:06.110Z,2.83
2018-12-19T17:02:34.537Z,3.87
2018-12-19T17:05:03.219Z,3.70
2018-12-19T17:07:31.756Z,3.57
2018-12-19T17:10:00.231Z,3.50
2018-12-19T17:12:28.885Z,3.63
2018-12-19T17:14:57.389Z,3.80
2018-12-19T17:17:26.281Z,3.73
2018-12-19T17:19:54.685Z,3.53
2018-12-19T17:22:23.236Z,3.33
2018-12-19T17:24:52.936Z,4.17
2018-12-19T17:27:21.358Z,3.93
2018-12-19T17:29:49.752Z,4.80
2018-12-19T17:32:18.486Z,4.33
2018-12-19T17:34:47.275Z,4.43
2018-12-19T17:37:15.689Z,4.50
2018-12-19T17:39:44.147Z,3.70
2018-12-19T17:42:12.702Z,4.50
2018-12-19T17:44:41.188Z,4.37
2018-12-19T17:47:09.630Z,4.57
2018-12-19T17:49:38.585Z,4.53
2018-12-19T17:52:07.028Z,4.80
2018-12-19T17:54:35.480Z,4.73
2018-12-19T17:57:04.009Z,4.60
2018-12-19T17:59:32.563Z,4.10
2018-12-19T18:02:01.073Z,4.50
2018-12-19T18:04:29.548Z,4.73
2018-12-19T18:06:58.019Z,4.10
2018-12-19T18:09:26.551Z,4.97
2018-12-19T18:11:55.062Z,4.97
2018-12-19T18:14:23.638Z,4.73
2018-12-19T18:16:52.161Z,4.50
2018-12-19T18:19:23.450Z,5.20
2018-12-19T18:21:51.018Z,4.73
2018-12-19T18:24:19.517Z,5.53
2018-12-19T18:26:48.649Z,4.80
2018-12-19T18:29:17.187Z,5.27
2018-12-19T18:31:46.726Z,5.47
2018-12-19T18:34:15.201Z,5.87
2018-12-19T18:36:44.574Z,6.10
2018-12-19T18:39:26.055Z,6.10
2018-12-19T18:41:52.669Z,5.83
2018-12-19T18:44:21.254Z,6.23
2018-12-19T18:46:52.768Z,6.37
2018-12-19T18:49:21.213Z,5.80
2018-12-19T18:51:49.691Z,6.67
2018-12-19T18:54:18.171Z,5.90
2018-12-19T18:56:46.743Z,6.23
2018-12-19T18:59:15.170Z,6.00
2018-12-19T19:01:43.718Z,6.50
2018-12-19T19:04:12.185Z,6.50
2018-12-19T19:06:40.789Z,6.90
2018-12-19T19:09:09.353Z,6.40
2018-12-19T19:11:41.148Z,6.30
2018-12-19T19:14:09.582Z,5.93
2018-12-19T19:16:38.401Z,6.47
2018-12-19T19:19:07.043Z,6.60
2018-12-19T19:21:35.532Z,6.77
2018-12-19T19:24:04.757Z,6.93
2018-12-19T19:26:33.741Z,6.43
2018-12-19T19:29:02.265Z,7.13
2018-12-19T19:31:35.097Z,7.13
2018-12-19T19:34:05.335Z,6.87
2018-12-19T19:36:34.402Z,6.80
2018-12-19T19:39:03.508Z,6.87
2018-12-19T19:41:32.222Z,6.43
2018-12-19T19:44:01.055Z,6.77
2018-12-19T19:46:30.031Z,6.50
2018-12-19T19:49:00.345Z,6.87
2018-12-19T19:51:29.011Z,6.43
2018-12-19T19:53:57.666Z,6.80
2018-12-19T19:56:26.188Z,6.43
2018-12-19T19:58:54.859Z,7.43
2018-12-19T20:01:23.401Z,7.23
2018-12-19T20:03:52.378Z,7.20
2018-12-19T20:06:21.064Z,7.77
2018-12-19T20:08:49.500Z,8.30
2018-12-19T20:11:18.054Z,8.23
2018-12-19T20:13:47.123Z,8.10
2018-12-19T20:16:15.573Z,8.47
2018-12-19T20:18:44.081Z,9.30
2018-12-19T20:21:12.566Z,8.93
2018-12-19T20:23:41.069Z,8.93
2018-12-19T20:26:09.656Z,10.03
2018-12-19T20:28:38.199Z,8.93
2018-12-19T20:31:06.715Z,9.90
2018-12-19T20:33:35.481Z,10.23
2018-12-19T20:36:04.229Z,10.00
2018-12-19T20:38:32.813Z,11.00
2018-12-19T20:41:01.463Z,10.63
2018-12-19T20:43:29.972Z,10.37
2018-12-19T20:45:58.513Z,10.37
2018-12-19T20:48:27.137Z,11.83
2018-12-19T20:50:55.663Z,10.10
2018-12-19T20:53:24.344Z,10.57
2018-12-19T20:55:54.419Z,11.00
2018-12-19T20:58:23.188Z,9.97
2018-12-19T21:00:52.196Z,9.40
2018-12-19T21:03:20.697Z,10.80
2018-12-19T21:05:49.254Z,10.63
2018-12-19T21:08:17.698Z,9.90
2018-12-19T21:10:46.224Z,10.83
2018-12-19T21:13:14.845Z,10.93
2018-12-19T21:15:43.367Z,10.37
2018-12-19T21:18:17.130Z,10.50
2018-12-19T21:20:45.757Z,10.37
2018-12-19T21:23:14.391Z,10.70
2018-12-19T21:25:45.886Z,10.27
2018-12-19T21:28:14.398Z,10.07
2018-12-19T21:30:43.000Z,9.90
2018-12-19T21:33:14.181Z,10.83
2018-12-19T21:35:42.023Z,10.47
2018-12-19T21:38:11.596Z,10.33
2018-12-19T21:40:40.040Z,9.83
2018-12-19T21:43:08.783Z,10.50
2018-12-19T21:45:37.452Z,10.47
2018-12-19T21:48:07.092Z,10.90
2018-12-19T21:50:35.664Z,9.83
2018-12-19T21:53:04.627Z,10.27
2018-12-19T21:55:33.285Z,10.03
2018-12-19T21:58:02.600Z,9.70
2018-12-19T22:00:36.810Z,9.30
2018-12-19T22:03:09.443Z,10.27
2018-12-19T22:05:41.117Z,10.70
2018-12-19T22:08:09.825Z,10.23
2018-12-19T22:10:38.480Z,10.37
2018-12-19T22:13:07.781Z,9.93
2018-12-19T22:15:36.393Z,9.63
2018-12-19T22:19:07.935Z,9.90
2018-12-19T22:21:36.542Z,9.63
2018-12-19T22:24:05.051Z,8.60
2018-12-19T22:26:33.757Z,9.70
2018-12-19T22:29:02.508Z,8.87
2018-12-19T22:31:33.235Z,9.07
2018-12-19T22:34:02.024Z,8.13
2018-12-19T22:36:30.624Z,7.57
2018-12-19T22:38:59.209Z,7.87
2018-12-19T22:41:27.836Z,7.30
2018-12-19T22:43:56.714Z,7.20
2018-12-19T22:46:27.332Z,7.00
2018-12-19T22:49:14.124Z,6.27
2018-12-19T22:51:42.674Z,6.37
2018-12-19T22:54:11.829Z,6.17
2018-12-19T22:56:40.454Z,5.47
2018-12-19T22:59:08.985Z,6.10
2018-12-19T23:01:43.168Z,5.27
2018-12-19T23:04:11.729Z,6.23
2018-12-19T23:06:40.284Z,5.27
2018-12-19T23:09:08.709Z,5.70
2018-12-19T23:11:37.541Z,4.80
2018-12-19T23:14:06.079Z,5.00
2018-12-19T23:16:34.517Z,4.90
2018-12-19T23:19:03.649Z,4.67
2018-12-19T23:21:32.089Z,4.57
2018-12-19T23:24:00.703Z,5.60
2018-12-19T23:26:29.291Z,5.53
2018-12-19T23:29:03.163Z,5.00
2018-12-19T23:31:32.241Z,5.03
2018-12-19T23:34:01.411Z,4.87
2018-12-19T23:36:29.855Z,5.00
2018-12-19T23:38:58.450Z,6.10
2018-12-19T23:41:26.935Z,5.60
2018-12-19T23:43:55.767Z,5.90
2018-12-19T23:46:24.333Z,6.33
2018-12-19T23:48:53.071Z,7.30
2018-12-19T23:51:22.101Z,7.67
2018-12-19T23:53:50.756Z,7.73
2018-12-19T23:56:19.402Z,7.80
2018-12-19T23:58:48.017Z,8.30
